Time;durP1;ratioP1;P1;durP2;ratioP2;P2;SDS_P1;SDS_P2;PMS_P1;PMS_P2;Temp;Humidity;BMP_temperature;BMP_pressure;BME280_temperature;BME280_humidity;BME280_pressure;Samples;Min_cycle;Max_cycle;Signal;HPM_P1;HPM_P2
2023/06/18 00:00:11;;;;;;;12.50;11.20;;;18.10;82.50;;;;;;5045158;28;20360;-72
2023/06/18 00:02:36;;;;;;;12.90;11.60;;;18.20;82.70;;;;;;5046772;28;20180;-71
2023/06/18 00:05:02;;;;;;;13.50;12.30;;;18.20;81.70;;;;;;5053568;28;20435;-72
2023/06/18 00:07:27;;;;;;;11.53;10.37;;;18.20;79.80;;;;;;5037644;28;20202;-72
2023/06/18 00:09:53;;;;;;;13.57;12.13;;;18.30;81.40;;;;;;5035157;28;20235;-72
2023/06/18 00:12:18;;;;;;;14.37;11.97;;;18.10;83.80;;;;;;5035817;28;20189;-71
2023/06/18 00:14:44;;;;;;;13.90;11.80;;;18.10;86.10;;;;;;5045581;28;20220;-72
2023/06/18 00:17:09;;;;;;;13.57;11.33;;;17.90;89.20;;;;;;5042419;28;20704;-72
2023/06/18 00:19:35;;;;;;;12.73;11.57;;;17.80;90.40;;;;;;5033278;28;20685;-71
2023/06/18 00:22:00;;;;;;;11.80;10.70;;;17.80;90.60;;;;;;5032594;28;20174;-72
2023/06/18 00:24:26;;;;;;;15.80;11.30;;;17.80;88.60;;;;;;5038124;28;20173;-72
2023/06/18 00:26:51;;;;;;;15.87;12.07;;;17.80;91.60;;;;;;5045269;28;20212;-72
2023/06/18 00:29:17;;;;;;;13.53;12.17;;;17.90;92.60;;;;;;5040981;28;20186;-72
2023/06/18 00:31:43;;;;;;;12.60;11.40;;;17.70;93.00;;;;;;5037153;28;20201;-71
2023/06/18 00:34:08;;;;;;;11.67;10.47;;;17.90;93.10;;;;;;5030461;28;20186;-72
2023/06/18 00:36:38;;;;;;;11.20;10.13;;;17.70;94.10;;;;;;5033957;28;20213;-71
2023/06/18 00:39:04;;;;;;;12.17;11.07;;;17.70;94.10;;;;;;5034326;28;20229;-71
2023/06/18 00:41:32;;;;;;;11.53;10.23;;;17.50;93.60;;;;;;5034371;28;20808;-71
2023/06/18 00:43:58;;;;;;;11.87;10.77;;;17.50;93.90;;;;;;5032413;28;20289;-72
2023/06/18 00:46:26;;;;;;;14.23;12.70;;;17.50;94.10;;;;;;5034122;28;20460;-72
2023/06/18 00:48:52;;;;;;;14.27;10.50;;;17.50;94.10;;;;;;5032759;28;20443;-72
2023/06/18 00:51:18;;;;;;;11.57;10.47;;;17.50;94.00;;;;;;5033751;28;20445;-72
2023/06/18 00:53:45;;;;;;;16.40;11.77;;;17.50;94.60;;;;;;5030102;28;20444;-71
2023/06/18 00:56:12;;;;;;;12.93;11.63;;;17.40;95.90;;;;;;5033291;28;20989;-72
2023/06/18 00:58:38;;;;;;;11.83;10.73;;;17.30;95.00;;;;;;5033110;28;20433;-72
2023/06/18 01:01:08;;;;;;;11.80;10.90;;;17.20;94.70;;;;;;5033184;28;20807;-72
2023/06/18 01:03:34;;;;;;;14.00;12.90;;;17.20;96.60;;;;;;5030747;28;20257;-72
2023/06/18 01:06:03;;;;;;;10.90;10.00;;;17.30;96.10;;;;;;5030526;28;20464;-72
2023/06/18 01:08:33;;;;;;;13.20;11.80;;;17.40;95.40;;;;;;5032270;28;20602;-72
2023/06/18 01:11:04;;;;;;;12.27;11.20;;;17.40;95.40;;;;;;5040743;28;20994;-71
2023/06/18 01:13:32;;;;;;;11.47;10.47;;;17.40;94.70;;;;;;5029674;28;20563;-71
2023/06/18 01:16:03;;;;;;;14.30;11.23;;;17.40;96.20;;;;;;5030461;28;20476;-72
2023/06/18 01:18:34;;;;;;;12.20;11.10;;;17.30;97.20;;;;;;5030542;28;20789;-71
2023/06/18 01:21:05;;;;;;;11.67;10.67;;;17.30;96.50;;;;;;5030987;28;20437;-72
2023/06/18 01:23:49;;;;;;;11.07;10.07;;;17.20;97.40;;;;;;5036247;28;20528;-71
2023/06/18 01:26:20;;;;;;;10.30;9.37;;;17.20;96.80;;;;;;5030673;28;20957;-72
2023/06/18 01:28:50;;;;;;;10.77;9.80;;;17.20;96.50;;;;;;5031857;28;20441;-72
2023/06/18 01:31:20;;;;;;;11.60;10.47;;;17.20;97.40;;;;;;5036201;28;20515;-72
2023/06/18 01:33:51;;;;;;;10.17;9.47;;;17.20;97.60;;;;;;5031451;28;20433;-72
2023/06/18 01:36:29;;;;;;;12.27;11.07;;;17.20;97.30;;;;;;5032423;28;20835;-72
2023/06/18 01:39:03;;;;;;;11.03;10.20;;;17.10;96.90;;;;;;5035274;28;20433;-71
2023/06/18 01:41:34;;;;;;;13.40;11.83;;;17.10;96.50;;;;;;5032158;28;20929;-72
2023/06/18 01:44:07;;;;;;;11.83;10.73;;;17.10;96.20;;;;;;5032560;28;20512;-72
2023/06/18 01:46:33;;;;;;;11.70;10.70;;;17.20;96.40;;;;;;5037248;28;20539;-72
2023/06/18 01:49:04;;;;;;;11.97;10.97;;;17.10;96.90;;;;;;5030591;28;20460;-71
2023/06/18 01:51:31;;;;;;;11.87;10.90;;;17.10;97.70;;;;;;5034048;28;20436;-72
2023/06/18 01:53:59;;;;;;;12.70;11.63;;;16.90;98.90;;;;;;5036927;28;20801;-71
2023/06/18 01:56:28;;;;;;;14.60;11.33;;;16.90;98.70;;;;;;5026112;28;20476;-72
2023/06/18 01:58:55;;;;;;;12.23;11.20;;;17.00;97.90;;;;;;5031517;28;20954;-72
2023/06/18 02:01:21;;;;;;;15.13;11.37;;;17.00;97.30;;;;;;5032108;28;20520;-71
2023/06/18 02:03:47;;;;;;;12.33;11.10;;;17.00;97.60;;;;;;5030036;28;20452;-72
2023/06/18 02:06:13;;;;;;;11.07;10.17;;;17.00;99.60;;;;;;5030159;28;20890;-72
2023/06/18 02:08:38;;;;;;;12.30;11.20;;;17.00;99.90;;;;;;5037902;28;20445;-72
2023/06/18 02:11:04;;;;;;;10.67;9.63;;;16.90;99.90;;;;;;5042473;28;20236;-72
2023/06/18 02:13:29;;;;;;;11.43;10.53;;;16.90;99.90;;;;;;5045510;28;20178;-71
2023/06/18 02:15:55;;;;;;;11.67;10.63;;;16.80;99.90;;;;;;5038119;28;20220;-71
2023/06/18 02:18:21;;;;;;;11.00;10.10;;;16.80;99.90;;;;;;5030184;28;20178;-71
2023/06/18 02:20:46;;;;;;;11.53;10.60;;;16.70;99.90;;;;;;5030634;28;20551;-72
2023/06/18 02:23:12;;;;;;;13.00;11.80;;;16.70;99.90;;;;;;5039736;28;20186;-71
2023/06/18 02:25:37;;;;;;;12.70;11.40;;;16.50;99.90;;;;;;5037928;28;20770;-71
2023/06/18 02:28:04;;;;;;;11.47;10.30;;;16.40;99.90;;;;;;5042013;28;20175;-72
2023/06/18 02:30:30;;;;;;;10.63;9.73;;;16.40;99.90;;;;;;5042608;28;20174;-72
2023/06/18 02:32:58;;;;;;;11.40;10.50;;;16.30;99.90;;;;;;5032405;28;20445;-71
2023/06/18 02:35:24;;;;;;;11.53;10.53;;;16.30;99.90;;;;;;5036196;28;20460;-71
2023/06/18 02:37:50;;;;;;;11.23;10.30;;;16.20;99.90;;;;;;5028753;28;20539;-72
2023/06/18 02:40:15;;;;;;;11.93;11.00;;;16.10;99.90;;;;;;5036673;28;20527;-72
2023/06/18 02:42:47;;;;;;;11.27;10.27;;;16.10;99.90;;;;;;5036189;28;20182;-71
2023/06/18 02:45:17;;;;;;;12.23;11.23;;;16.20;99.90;;;;;;5038699;28;20215;-71
2023/06/18 02:47:44;;;;;;;11.33;10.33;;;16.20;99.90;;;;;;5028574;28;20490;-71
2023/06/18 02:50:11;;;;;;;11.77;10.77;;;16.10;99.90;;;;;;5030074;28;20566;-71
2023/06/18 02:52:37;;;;;;;12.30;11.10;;;16.10;99.90;;;;;;5031331;28;20436;-71
2023/06/18 02:55:03;;;;;;;12.43;11.53;;;16.10;99.90;;;;;;5044126;28;21114;-72
2023/06/18 02:57:29;;;;;;;12.00;10.90;;;16.20;99.90;;;;;;5031632;28;20198;-71
2023/06/18 02:59:54;;;;;;;12.43;11.40;;;16.20;99.90;;;;;;5040131;28;20431;-72
2023/06/18 03:02:20;;;;;;;12.00;10.47;;;16.20;99.90;;;;;;5038484;28;20174;-71
2023/06/18 03:04:46;;;;;;;10.90;9.90;;;16.20;99.90;;;;;;5037973;28;20182;-71
2023/06/18 03:07:11;;;;;;;18.87;11.57;;;16.20;99.90;;;;;;5029769;28;20202;-71
2023/06/18 03:09:37;;;;;;;12.70;11.60;;;16.30;99.90;;;;;;5031534;28;20558;-72
2023/06/18 03:12:02;;;;;;;12.17;11.17;;;16.20;99.90;;;;;;5038281;28;20689;-71
2023/06/18 03:14:28;;;;;;;12.17;11.20;;;16.20;99.90;;;;;;5042690;28;20177;-71
2023/06/18 03:16:53;;;;;;;11.57;10.47;;;16.20;99.90;;;;;;5033969;28;20296;-71
2023/06/18 03:19:19;;;;;;;13.40;11.17;;;16.30;99.90;;;;;;5036827;28;20181;-72
2023/06/18 03:21:44;;;;;;;12.07;11.03;;;16.20;99.90;;;;;;5029131;28;20186;-71
2023/06/18 03:24:11;;;;;;;12.37;11.37;;;16.20;99.90;;;;;;5033133;28;20701;-71
2023/06/18 03:26:37;;;;;;;12.47;11.40;;;16.10;99.90;;;;;;5042877;28;20808;-71
2023/06/18 03:29:03;;;;;;;13.17;11.93;;;16.10;99.90;;;;;;5035793;28;20875;-71
2023/06/18 03:31:30;;;;;;;12.40;10.30;;;16.00;99.90;;;;;;5026718;28;20449;-71
2023/06/18 03:34:01;;;;;;;12.20;11.10;;;16.10;99.90;;;;;;5035086;28;20536;-71
2023/06/18 03:36:30;;;;;;;13.37;12.27;;;16.10;99.90;;;;;;5029969;28;20468;-71
2023/06/18 03:38:56;;;;;;;12.13;11.13;;;16.20;99.90;;;;;;5028087;28;20849;-71
2023/06/18 03:41:22;;;;;;;13.13;11.83;;;16.20;99.90;;;;;;5028952;28;20547;-71
2023/06/18 03:43:47;;;;;;;12.87;11.77;;;16.30;99.90;;;;;;5029666;28;20320;-72
2023/06/18 03:46:13;;;;;;;13.10;11.90;;;16.40;99.90;;;;;;5038460;28;20543;-72
2023/06/18 03:48:41;;;;;;;13.10;11.83;;;16.40;99.90;;;;;;5045811;28;20177;-72
2023/06/18 03:51:06;;;;;;;12.20;11.03;;;16.40;99.90;;;;;;5031379;28;20675;-72
2023/06/18 03:53:36;;;;;;;10.53;9.63;;;16.50;99.90;;;;;;5031415;28;20444;-72
2023/06/18 03:56:05;;;;;;;12.17;11.00;;;16.60;99.90;;;;;;5031275;28;20315;-71
2023/06/18 03:58:31;;;;;;;12.63;11.40;;;16.60;99.90;;;;;;5032125;28;20440;-72
2023/06/18 04:00:56;;;;;;;12.50;11.33;;;16.70;99.90;;;;;;5032250;28;20455;-71
2023/06/18 04:03:22;;;;;;;12.17;10.93;;;16.80;99.90;;;;;;5030861;28;20289;-72
2023/06/18 04:05:48;;;;;;;11.63;10.60;;;16.80;99.90;;;;;;5033617;28;20217;-72
2023/06/18 04:08:14;;;;;;;13.07;11.10;;;16.90;99.90;;;;;;5031437;28;20186;-69
2023/06/18 04:10:41;;;;;;;12.73;11.70;;;16.90;99.90;;;;;;5029822;28;20447;-68
2023/06/18 04:13:06;;;;;;;12.13;11.13;;;17.00;99.90;;;;;;5028792;28;20515;-68
2023/06/18 04:15:32;;;;;;;12.70;11.70;;;17.10;99.90;;;;;;5029370;28;20878;-68
2023/06/18 04:17:58;;;;;;;13.33;12.23;;;17.10;99.90;;;;;;5035066;28;20205;-68
2023/06/18 04:20:23;;;;;;;12.03;11.03;;;17.10;99.90;;;;;;5035051;28;20213;-69
2023/06/18 04:22:49;;;;;;;12.97;11.80;;;17.20;99.90;;;;;;5035280;28;20171;-68
2023/06/18 04:25:15;;;;;;;11.77;10.87;;;17.30;99.90;;;;;;5029555;28;20177;-69
2023/06/18 04:27:41;;;;;;;11.37;10.43;;;17.40;99.90;;;;;;5031809;28;20443;-69
2023/06/18 04:30:08;;;;;;;11.20;10.20;;;17.50;99.90;;;;;;5031851;28;20194;-69
2023/06/18 04:32:33;;;;;;;11.73;10.70;;;17.50;99.90;;;;;;5033718;28;20445;-69
2023/06/18 04:34:59;;;;;;;11.67;10.57;;;17.60;99.90;;;;;;5033468;28;20828;-69
2023/06/18 04:37:24;;;;;;;12.63;11.33;;;17.70;99.90;;;;;;5031951;28;20209;-69
2023/06/18 04:39:50;;;;;;;11.60;10.70;;;17.90;99.90;;;;;;5033384;28;20190;-68
2023/06/18 04:42:15;;;;;;;10.77;9.67;;;18.00;99.90;;;;;;5032898;28;20621;-68
2023/06/18 04:44:41;;;;;;;12.33;11.33;;;18.20;99.90;;;;;;5032218;28;20554;-69
2023/06/18 04:47:07;;;;;;;11.40;10.43;;;18.30;99.90;;;;;;5032962;28;20236;-69
2023/06/18 04:49:32;;;;;;;11.70;10.60;;;18.40;99.90;;;;;;5030630;28;20186;-69
2023/06/18 04:51:58;;;;;;;12.73;11.63;;;18.50;99.90;;;;;;5032970;28;20182;-69
2023/06/18 04:54:23;;;;;;;12.10;11.10;;;18.50;99.90;;;;;;5034256;28;20169;-69
2023/06/18 04:56:49;;;;;;;12.13;11.20;;;18.50;99.90;;;;;;5034596;28;20237;-69
2023/06/18 04:59:16;;;;;;;13.37;11.97;;;18.50;99.90;;;;;;5031910;28;20228;-69
2023/06/18 05:01:42;;;;;;;11.30;10.40;;;18.50;99.90;;;;;;5029253;28;20182;-69
2023/06/18 05:04:08;;;;;;;12.67;11.67;;;18.60;99.90;;;;;;5031018;28;20515;-69
2023/06/18 05:06:33;;;;;;;11.63;10.73;;;18.60;99.90;;;;;;5032783;28;20544;-69
2023/06/18 05:08:59;;;;;;;11.63;10.63;;;18.60;99.90;;;;;;5044516;22;20222;-68
2023/06/18 05:11:24;;;;;;;11.27;10.37;;;18.70;99.90;;;;;;5011947;28;20186;-69
2023/06/18 05:13:50;;;;;;;11.47;10.57;;;18.80;99.90;;;;;;5012218;28;20659;-69
2023/06/18 05:16:15;;;;;;;11.47;10.57;;;18.90;99.90;;;;;;5011018;28;20663;-69
2023/06/18 05:18:41;;;;;;;12.57;11.57;;;18.90;99.90;;;;;;5012115;28;20187;-71
2023/06/18 05:21:06;;;;;;;12.00;10.90;;;19.00;99.90;;;;;;5012144;28;20197;-69
2023/06/18 05:23:32;;;;;;;11.23;10.33;;;19.20;99.90;;;;;;5014475;28;20175;-71
2023/06/18 05:25:57;;;;;;;12.80;11.70;;;19.20;99.90;;;;;;5016546;28;20628;-70
2023/06/18 05:28:23;;;;;;;12.40;11.40;;;19.40;99.90;;;;;;5019296;28;20203;-71
2023/06/18 05:30:48;;;;;;;12.23;10.97;;;19.50;99.90;;;;;;5009519;28;20175;-69
2023/06/18 05:33:14;;;;;;;11.67;10.50;;;19.60;99.90;;;;;;5011813;28;20294;-69
2023/06/18 05:35:40;;;;;;;11.60;10.40;;;19.80;99.90;;;;;;5007262;28;20207;-69
2023/06/18 05:38:05;;;;;;;11.17;10.30;;;19.90;99.40;;;;;;5018389;28;20203;-69
2023/06/18 05:40:31;;;;;;;12.10;11.00;;;20.00;99.10;;;;;;5018971;28;20189;-69
2023/06/18 05:42:56;;;;;;;12.73;11.37;;;20.20;98.60;;;;;;5024976;28;20594;-69
2023/06/18 05:45:22;;;;;;;14.03;11.87;;;20.30;98.40;;;;;;4991919;28;20220;-69
2023/06/18 05:47:47;;;;;;;12.83;11.60;;;20.50;98.10;;;;;;5010779;28;20687;-69
2023/06/18 05:50:13;;;;;;;12.33;10.57;;;20.60;98.30;;;;;;5014530;28;20179;-71
2023/06/18 05:52:39;;;;;;;11.60;10.40;;;20.60;97.80;;;;;;5024034;28;20174;-71
2023/06/18 05:55:07;;;;;;;11.87;10.77;;;20.60;97.40;;;;;;5022297;28;20201;-69
2023/06/18 05:57:32;;;;;;;11.60;10.70;;;20.60;97.40;;;;;;5019385;28;20977;-71
2023/06/18 05:59:58;;;;;;;11.73;10.70;;;20.90;97.70;;;;;;5011503;28;20433;-69
2023/06/18 06:02:23;;;;;;;11.17;10.27;;;21.20;96.90;;;;;;5014783;28;20178;-70
2023/06/18 06:04:49;;;;;;;10.80;10.00;;;21.50;96.50;;;;;;5012397;28;20555;-68
2023/06/18 06:07:14;;;;;;;11.20;10.30;;;21.90;95.70;;;;;;5012311;28;20191;-71
2023/06/18 06:09:40;;;;;;;10.77;9.77;;;22.20;95.20;;;;;;5017107;28;20238;-71
2023/06/18 06:12:08;;;;;;;10.97;10.10;;;22.50;94.20;;;;;;5009880;28;20644;-71
2023/06/18 06:14:33;;;;;;;10.90;10.00;;;22.90;93.60;;;;;;5010925;28;20182;-69
2023/06/18 06:16:59;;;;;;;10.67;9.67;;;22.90;90.90;;;;;;5011421;28;20469;-68
2023/06/18 06:19:25;;;;;;;11.10;10.00;;;22.90;87.50;;;;;;5019102;28;20277;-68
2023/06/18 06:21:51;;;;;;;9.17;8.47;;;22.90;84.60;;;;;;5019466;28;20271;-71
2023/06/18 06:24:17;;;;;;;9.73;8.83;;;22.80;82.80;;;;;;5017164;28;20874;-71
2023/06/18 06:26:42;;;;;;;10.73;9.83;;;22.80;81.00;;;;;;5007345;28;20178;-71
2023/06/18 06:29:08;;;;;;;10.53;9.37;;;22.80;81.50;;;;;;5009914;28;20203;-71
2023/06/18 06:31:33;;;;;;;9.93;9.07;;;22.90;81.80;;;;;;5015650;28;20266;-71
2023/06/18 06:33:59;;;;;;;9.67;8.80;;;23.20;80.80;;;;;;5020271;28;20496;-69
2023/06/18 06:36:25;;;;;;;11.63;10.63;;;23.50;79.20;;;;;;5022818;28;20202;-68
2023/06/18 06:38:50;;;;;;;9.67;8.87;;;23.70;80.70;;;;;;5011889;28;20281;-69
2023/06/18 06:41:16;;;;;;;11.77;9.50;;;23.90;80.40;;;;;;5009055;28;20171;-69
2023/06/18 06:43:42;;;;;;;14.87;9.57;;;24.00;78.30;;;;;;5010077;28;20186;-69
2023/06/18 06:46:08;;;;;;;10.90;9.90;;;24.00;77.80;;;;;;5009250;28;20184;-71
2023/06/18 06:48:34;;;;;;;10.27;9.47;;;23.80;77.80;;;;;;5014921;28;20201;-71
2023/06/18 06:51:00;;;;;;;11.07;9.93;;;23.80;78.60;;;;;;5009915;28;20512;-71
2023/06/18 06:53:26;;;;;;;9.90;9.10;;;24.20;77.90;;;;;;5015018;28;20443;-71
2023/06/18 06:55:51;;;;;;;11.50;10.40;;;24.70;77.40;;;;;;5010791;28;20271;-68
2023/06/18 06:58:17;;;;;;;9.73;8.90;;;25.10;73.80;;;;;;5009918;28;20567;-69
2023/06/18 07:00:42;;;;;;;9.90;9.00;;;25.10;73.60;;;;;;5018188;28;20210;-69
2023/06/18 07:03:08;;;;;;;11.30;10.33;;;25.00;71.00;;;;;;5020620;28;20263;-69
2023/06/18 07:05:34;;;;;;;10.03;9.23;;;24.80;71.40;;;;;;5019559;28;20261;-69
2023/06/18 07:08:02;;;;;;;10.90;9.80;;;25.20;71.20;;;;;;5009319;28;20488;-69
2023/06/18 07:10:27;;;;;;;11.03;10.03;;;25.00;66.60;;;;;;5015304;28;20217;-69
2023/06/18 07:12:53;;;;;;;10.60;9.50;;;25.00;65.20;;;;;;5022964;28;20437;-69
2023/06/18 07:15:18;;;;;;;9.37;8.57;;;25.10;66.00;;;;;;5018543;28;20286;-69
2023/06/18 07:17:44;;;;;;;9.33;8.63;;;25.10;63.30;;;;;;5020034;28;20252;-70
2023/06/18 07:20:10;;;;;;;10.30;9.00;;;25.50;62.90;;;;;;5010670;28;20187;-68
2023/06/18 07:22:35;;;;;;;9.83;8.97;;;25.40;61.00;;;;;;5014336;28;20190;-68
2023/06/18 07:25:01;;;;;;;10.73;9.90;;;25.50;63.30;;;;;;5026024;28;20274;-68
2023/06/18 07:27:26;;;;;;;9.10;8.40;;;25.80;64.60;;;;;;5008666;28;20216;-67
2023/06/18 07:29:52;;;;;;;9.47;8.70;;;26.10;63.80;;;;;;5013431;28;20264;-69
2023/06/18 07:32:18;;;;;;;10.47;9.00;;;26.40;63.40;;;;;;5018207;28;20205;-69
2023/06/18 07:34:43;;;;;;;9.87;9.00;;;26.70;62.30;;;;;;5025705;28;20477;-69
2023/06/18 07:37:09;;;;;;;10.60;9.80;;;27.00;61.10;;;;;;5016108;28;20260;-69
2023/06/18 07:39:35;;;;;;;10.40;9.30;;;27.30;59.60;;;;;;4995051;28;20259;-69
2023/06/18 07:42:00;;;;;;;9.53;8.67;;;27.60;58.80;;;;;;5014968;28;20205;-69
2023/06/18 07:44:27;;;;;;;10.47;9.67;;;27.50;58.20;;;;;;5019259;28;20175;-69
2023/06/18 07:46:53;;;;;;;9.10;8.50;;;27.80;56.40;;;;;;5019047;28;20690;-69
2023/06/18 07:49:20;;;;;;;10.23;9.37;;;27.80;55.50;;;;;;5010608;28;20469;-69
2023/06/18 07:51:47;;;;;;;9.80;8.90;;;27.70;55.80;;;;;;5013945;28;20656;-69
2023/06/18 07:54:12;;;;;;;10.27;9.47;;;27.40;56.90;;;;;;5025027;28;20992;-69
2023/06/18 07:56:38;;;;;;;9.97;9.07;;;27.20;57.40;;;;;;5025876;28;20456;-69
2023/06/18 07:59:03;;;;;;;9.57;8.67;;;26.90;53.90;;;;;;4998999;28;20289;-69
2023/06/18 08:01:29;;;;;;;9.40;8.70;;;27.00;54.80;;;;;;5005757;28;20321;-69
2023/06/18 08:03:54;;;;;;;9.53;8.60;;;27.50;54.40;;;;;;5014436;28;20186;-69
2023/06/18 08:06:20;;;;;;;9.50;8.70;;;27.80;54.00;;;;;;5012714;28;20648;-69
2023/06/18 08:08:48;;;;;;;10.80;9.80;;;27.60;53.70;;;;;;5012158;28;20226;-69
2023/06/18 08:11:15;;;;;;;10.67;9.77;;;27.70;54.30;;;;;;5014012;28;20297;-69
2023/06/18 08:13:40;;;;;;;9.77;9.00;;;28.20;52.90;;;;;;5022962;28;20564;-69
2023/06/18 08:16:06;;;;;;;9.13;8.23;;;28.90;52.20;;;;;;5011920;28;20560;-69
2023/06/18 08:18:32;;;;;;;8.87;7.97;;;29.50;52.10;;;;;;5018606;28;20228;-69
2023/06/18 08:20:57;;;;;;;9.57;8.87;;;29.80;51.00;;;;;;5019248;28;20175;-69
2023/06/18 08:23:23;;;;;;;10.30;9.60;;;29.80;50.60;;;;;;5023397;28;20171;-69
2023/06/18 08:25:48;;;;;;;9.50;8.83;;;29.40;50.60;;;;;;5022168;28;20191;-69
2023/06/18 08:28:14;;;;;;;9.40;8.70;;;29.00;50.80;;;;;;5019502;28;20583;-69
2023/06/18 08:30:39;;;;;;;10.97;9.97;;;29.10;50.50;;;;;;5009427;28;20183;-69
2023/06/18 08:33:05;;;;;;;8.47;7.83;;;29.10;49.90;;;;;;5012233;28;20191;-69
2023/06/18 08:35:31;;;;;;;9.97;9.17;;;29.20;49.00;;;;;;5017564;28;21151;-69
2023/06/18 08:37:57;;;;;;;10.17;9.20;;;29.70;48.60;;;;;;5029773;28;20202;-69
2023/06/18 08:40:25;;;;;;;9.47;8.77;;;30.20;48.10;;;;;;5017447;28;20260;-69
2023/06/18 08:42:51;;;;;;;10.10;8.93;;;30.00;47.30;;;;;;5016279;28;20926;-69
2023/06/18 08:45:16;;;;;;;9.70;9.00;;;30.60;47.80;;;;;;5012970;28;20499;-69
2023/06/18 08:47:45;;;;;;;10.57;9.73;;;30.90;46.90;;;;;;5022332;28;20191;-70
2023/06/18 08:50:12;;;;;;;9.10;8.50;;;31.50;45.90;;;;;;5020762;28;20659;-69
2023/06/18 08:52:40;;;;;;;10.80;9.90;;;31.70;44.70;;;;;;5019308;28;20943;-70
2023/06/18 08:55:08;;;;;;;9.80;9.20;;;31.70;44.00;;;;;;5020862;28;20858;-69
2023/06/18 08:57:52;;;;;;;9.37;8.40;;;31.30;44.00;;;;;;5013224;28;20514;-70
2023/06/18 09:00:18;;;;;;;9.67;9.03;;;31.60;44.20;;;;;;5021204;28;20437;-70
2023/06/18 09:02:45;;;;;;;10.50;9.70;;;31.40;43.60;;;;;;5020472;28;20518;-70
2023/06/18 09:05:11;;;;;;;9.80;8.97;;;31.70;43.30;;;;;;5023618;28;20492;-70
2023/06/18 09:07:37;;;;;;;9.40;8.60;;;31.90;42.70;;;;;;5023704;28;20476;-70
2023/06/18 09:10:04;;;;;;;9.40;8.70;;;31.90;41.50;;;;;;5014317;28;20248;-70
2023/06/18 09:12:29;;;;;;;9.77;9.07;;;31.90;41.30;;;;;;5015037;28;20440;-70
2023/06/18 09:14:55;;;;;;;8.97;8.30;;;32.10;40.90;;;;;;5019268;28;20955;-70
2023/06/18 09:17:22;;;;;;;9.73;9.00;;;32.30;40.10;;;;;;5024502;28;20245;-70
2023/06/18 09:19:49;;;;;;;9.60;8.83;;;32.10;39.50;;;;;;5024328;28;20175;-70
2023/06/18 09:22:16;;;;;;;9.37;8.67;;;31.70;38.30;;;;;;5021126;28;20437;-69
2023/06/18 09:24:43;;;;;;;8.30;7.50;;;31.10;39.70;;;;;;5011486;28;20440;-70
2023/06/18 09:27:09;;;;;;;9.27;8.57;;;31.50;38.80;;;;;;5018575;28;20445;-70
2023/06/18 09:29:40;;;;;;;9.00;8.37;;;31.60;39.60;;;;;;5024716;28;20508;-70
2023/06/18 09:32:11;;;;;;;8.60;8.00;;;31.60;38.80;;;;;;5023278;28;20438;-70
2023/06/18 09:34:38;;;;;;;9.00;8.20;;;31.90;38.10;;;;;;5013719;28;20422;-70
2023/06/18 09:37:05;;;;;;;9.13;8.37;;;31.50;38.30;;;;;;5012458;28;20466;-70
2023/06/18 09:39:33;;;;;;;8.23;7.57;;;31.70;37.10;;;;;;5011998;28;20453;-70
2023/06/18 09:42:06;;;;;;;8.80;8.07;;;31.90;37.60;;;;;;5013236;28;20428;-70
2023/06/18 09:44:32;;;;;;;9.13;8.43;;;32.40;37.30;;;;;;4996610;28;20429;-69
2023/06/18 09:46:58;;;;;;;8.10;7.50;;;32.70;36.80;;;;;;5020094;28;20937;-69
2023/06/18 09:49:25;;;;;;;9.30;8.60;;;33.30;36.00;;;;;;5032733;28;20506;-69
2023/06/18 09:51:52;;;;;;;7.93;7.37;;;33.90;35.50;;;;;;5010235;28;20186;-69
2023/06/18 09:54:18;;;;;;;8.63;7.83;;;33.90;34.80;;;;;;5011384;28;20438;-70
2023/06/18 09:56:58;;;;;;;8.93;8.33;;;33.80;35.40;;;;;;5005884;28;20485;-69
2023/06/18 09:59:25;;;;;;;8.93;8.23;;;32.70;35.00;;;;;;5012489;28;20441;-70
2023/06/18 10:01:51;;;;;;;9.60;8.80;;;32.90;35.50;;;;;;5011781;28;20438;-70
2023/06/18 10:04:17;;;;;;;8.70;7.87;;;33.90;35.00;;;;;;5012720;28;20433;-70
2023/06/18 10:07:05;;;;;;;9.10;8.30;;;34.70;34.50;;;;;;5012796;28;20469;-70
2023/06/18 10:09:40;;;;;;;8.70;8.03;;;34.50;34.10;;;;;;5012527;28;20457;-70
2023/06/18 10:12:06;;;;;;;9.70;8.90;;;35.00;33.70;;;;;;5012829;28;20429;-70
2023/06/18 10:14:33;;;;;;;8.20;7.60;;;34.40;33.60;;;;;;5012508;28;20434;-70
2023/06/18 10:17:05;;;;;;;9.37;8.57;;;34.20;33.60;;;;;;5011430;28;20971;-70
2023/06/18 10:19:37;;;;;;;12.60;7.70;;;33.90;33.90;;;;;;5012026;28;20454;-70
2023/06/18 10:22:03;;;;;;;9.70;9.00;;;34.40;33.90;;;;;;5012886;28;20469;-70
2023/06/18 10:24:49;;;;;;;8.97;8.20;;;35.40;32.80;;;;;;5023433;28;20970;-70
2023/06/18 10:27:16;;;;;;;7.93;7.40;;;35.50;32.10;;;;;;5019508;28;20187;-70
2023/06/18 10:29:42;;;;;;;8.73;7.93;;;35.70;32.40;;;;;;5015076;28;20452;-70
2023/06/18 10:32:10;;;;;;;7.90;7.13;;;35.50;32.10;;;;;;5013462;28;20437;-70
2023/06/18 10:34:37;;;;;;;8.73;8.17;;;35.60;32.50;;;;;;5018791;28;20527;-70
2023/06/18 10:37:03;;;;;;;8.77;8.27;;;36.80;31.50;;;;;;5013522;28;20480;-70
2023/06/18 10:39:29;;;;;;;8.50;7.70;;;37.30;30.70;;;;;;5018386;28;20480;-70
2023/06/18 10:42:00;;;;;;;7.83;7.30;;;37.40;30.40;;;;;;5019579;28;20441;-70
2023/06/18 10:44:52;;;;;;;8.40;7.80;;;37.40;30.10;;;;;;5006420;28;20911;-71
2023/06/18 10:47:26;;;;;;;9.10;8.57;;;36.60;29.60;;;;;;5007935;28;20444;-71
2023/06/18 10:50:00;;;;;;;7.37;6.87;;;36.70;29.80;;;;;;5011676;28;20529;-71
2023/06/18 10:52:29;;;;;;;8.00;7.50;;;37.50;29.40;;;;;;5014762;28;20436;-71
2023/06/18 10:55:09;;;;;;;9.60;7.57;;;37.70;28.90;;;;;;5016726;28;20499;-71
2023/06/18 10:57:43;;;;;;;7.77;7.23;;;38.40;28.70;;;;;;5012739;28;21056;-71
2023/06/18 11:00:29;;;;;;;8.77;8.07;;;39.30;28.10;;;;;;5027021;28;20438;-71
2023/06/18 11:03:12;;;;;;;9.07;8.47;;;38.70;28.30;;;;;;5009821;28;20440;-71
2023/06/18 11:05:45;;;;;;;9.00;8.50;;;38.90;28.10;;;;;;5023697;28;20499;-71
2023/06/18 11:08:13;;;;;;;9.43;8.60;;;39.40;27.90;;;;;;5020076;28;20504;-72
2023/06/18 11:10:47;;;;;;;8.20;7.70;;;40.90;28.00;;;;;;5018809;28;20536;-71
2023/06/18 11:13:13;;;;;;;8.47;7.80;;;41.60;27.80;;;;;;5021467;28;20986;-71
2023/06/18 11:15:59;;;;;;;7.93;7.23;;;40.90;27.20;;;;;;5022495;28;20496;-71
2023/06/18 11:18:27;;;;;;;8.33;7.50;;;39.90;27.00;;;;;;5007194;28;20452;-71
2023/06/18 11:20:55;;;;;;;8.40;7.70;;;38.70;27.30;;;;;;5017147;28;20930;-72
2023/06/18 11:23:21;;;;;;;7.73;7.13;;;38.30;27.70;;;;;;5022625;28;20451;-72
2023/06/18 11:25:47;;;;;;;8.00;7.50;;;39.20;28.10;;;;;;5015403;28;20475;-72
2023/06/18 11:28:13;;;;;;;8.27;7.67;;;39.60;27.20;;;;;;5022392;28;20476;-72
2023/06/18 11:30:45;;;;;;;6.80;6.40;;;40.70;26.90;;;;;;5018894;28;20258;-72
2023/06/18 11:33:10;;;;;;;7.80;7.00;;;41.60;26.60;;;;;;5017409;28;20481;-72
2023/06/18 11:35:36;;;;;;;7.93;7.50;;;41.80;26.10;;;;;;5009541;28;20490;-72
2023/06/18 11:38:01;;;;;;;7.57;7.17;;;42.10;26.00;;;;;;5010724;28;20191;-72
2023/06/18 11:40:27;;;;;;;7.80;7.40;;;42.00;25.90;;;;;;5020928;28;20175;-72
2023/06/18 11:42:53;;;;;;;7.47;6.87;;;40.50;25.90;;;;;;5018894;28;20171;-72
2023/06/18 11:45:20;;;;;;;7.17;6.77;;;40.20;26.30;;;;;;5022451;28;20178;-72
2023/06/18 11:47:48;;;;;;;6.93;6.53;;;41.60;26.00;;;;;;5014108;28;20456;-72
2023/06/18 11:50:14;;;;;;;7.53;7.07;;;42.50;25.30;;;;;;5012778;28;20962;-72
2023/06/18 11:52:40;;;;;;;7.70;7.07;;;42.30;25.20;;;;;;5018822;28;20523;-72
2023/06/18 11:55:07;;;;;;;7.60;7.10;;;43.30;25.30;;;;;;5020378;28;20473;-72
2023/06/18 11:57:33;;;;;;;8.00;7.50;;;43.50;24.50;;;;;;5016674;28;20684;-72
2023/06/18 11:59:59;;;;;;;7.93;7.53;;;43.30;24.40;;;;;;5015874;28;20776;-72
2023/06/18 12:02:28;;;;;;;7.43;7.00;;;42.80;24.50;;;;;;5020893;28;20963;-72
2023/06/18 12:05:04;;;;;;;7.37;6.93;;;42.80;24.40;;;;;;5013166;28;20429;-72
2023/06/18 12:07:30;;;;;;;8.07;7.37;;;43.30;24.30;;;;;;5014139;28;20468;-72
2023/06/18 12:10:03;;;;;;;7.10;6.70;;;43.70;24.20;;;;;;5019854;28;20442;-72
2023/06/18 12:12:31;;;;;;;8.23;7.53;;;44.00;24.00;;;;;;5023927;28;20445;-72
2023/06/18 12:15:24;;;;;;;7.70;7.20;;;45.00;24.40;;;;;;5022555;28;20462;-72
2023/06/18 12:18:17;;;;;;;7.13;6.73;;;43.40;24.30;;;;;;5025670;28;21055;-72
2023/06/18 12:20:43;;;;;;;8.33;7.73;;;41.90;24.40;;;;;;5009800;28;20772;-72
2023/06/18 12:23:10;;;;;;;7.87;7.27;;;41.00;24.90;;;;;;5008000;28;20422;-72
2023/06/18 12:25:36;;;;;;;9.23;7.77;;;40.90;25.00;;;;;;5022075;28;20476;-72
2023/06/18 12:28:02;;;;;;;6.40;6.00;;;41.80;25.20;;;;;;5024250;28;20495;-71
2023/06/18 12:30:35;;;;;;;7.47;6.97;;;42.20;24.80;;;;;;5020401;28;20171;-72
2023/06/18 12:33:03;;;;;;;7.63;7.13;;;43.40;24.10;;;;;;5023065;28;20437;-72
2023/06/18 12:35:30;;;;;;;8.20;7.70;;;45.40;23.40;;;;;;5018138;28;20433;-72